Time;durP1;ratioP1;P1;durP2;ratioP2;P2;SDS_P1;SDS_P2;PMS_P1;PMS_P2;Temp;Humidity;BMP_temperature;BMP_pressure;BME280_temperature;BME280_humidity;BME280_pressure;Samples;Min_cycle;Max_cycle;Signal;HPM_P1;HPM_P2
2023/09/12 00:01:10;;;;;;;10.75;8.00;;;22.70;85.80;;;;;;5012731;28;20018;-81
2023/09/12 00:03:36;;;;;;;13.02;8.70;;;22.70;86.00;;;;;;5012875;28;20030;-81
2023/09/12 00:06:03;;;;;;;13.57;9.27;;;22.70;86.20;;;;;;5012709;28;20040;-80
2023/09/12 00:08:29;;;;;;;10.25;8.57;;;22.60;86.30;;;;;;5012921;28;20022;-81
2023/09/12 00:11:03;;;;;;;10.32;8.60;;;22.60;86.50;;;;;;5012600;28;20053;-80
2023/09/12 00:13:29;;;;;;;10.05;8.73;;;22.60;86.70;;;;;;5012832;28;20033;-81
2023/09/12 00:15:55;;;;;;;10.48;8.43;;;22.60;86.90;;;;;;5012671;28;20022;-81
2023/09/12 00:18:21;;;;;;;11.43;8.55;;;22.50;87.10;;;;;;5012505;28;20029;-81
2023/09/12 00:20:47;;;;;;;11.93;8.93;;;22.60;87.40;;;;;;5012822;28;20037;-80
2023/09/12 00:23:12;;;;;;;9.50;8.48;;;22.60;87.30;;;;;;5012931;28;20501;-81
2023/09/12 00:25:38;;;;;;;14.80;8.20;;;22.60;87.40;;;;;;5013989;28;20041;-81
2023/09/12 00:28:04;;;;;;;13.73;8.38;;;22.60;87.30;;;;;;5016249;28;20034;-81
2023/09/12 00:30:30;;;;;;;11.90;7.93;;;22.60;87.30;;;;;;5016626;28;20022;-81
2023/09/12 00:32:55;;;;;;;11.75;8.32;;;22.50;87.20;;;;;;5016383;28;20034;-81
2023/09/12 00:35:21;;;;;;;9.55;8.02;;;22.50;87.30;;;;;;5016579;28;20072;-81
2023/09/12 00:37:47;;;;;;;14.73;8.43;;;22.50;87.50;;;;;;5016462;28;20029;-81
2023/09/12 00:40:13;;;;;;;13.23;8.82;;;22.50;87.50;;;;;;5016061;28;20075;-81
2023/09/12 00:42:38;;;;;;;8.50;7.65;;;22.50;87.50;;;;;;5016521;28;20049;-82
2023/09/12 00:45:04;;;;;;;12.00;8.43;;;22.40;87.50;;;;;;5016270;28;20025;-81
2023/09/12 00:47:31;;;;;;;8.95;8.05;;;22.40;87.60;;;;;;5016326;28;20104;-81
2023/09/12 00:49:58;;;;;;;8.95;7.82;;;22.40;87.60;;;;;;5016083;28;20029;-81
2023/09/12 00:52:28;;;;;;;12.02;8.32;;;22.40;87.60;;;;;;5016091;28;20703;-81
2023/09/12 00:54:55;;;;;;;9.98;8.20;;;22.40;87.40;;;;;;5016152;28;20022;-81
2023/09/12 00:57:21;;;;;;;8.95;7.75;;;22.40;87.30;;;;;;5015900;28;20481;-81
2023/09/12 00:59:51;;;;;;;8.43;7.63;;;22.30;87.20;;;;;;5012431;28;20117;-80
2023/09/12 01:02:19;;;;;;;10.05;7.07;;;22.30;87.20;;;;;;5012912;28;20033;-80
2023/09/12 01:04:45;;;;;;;8.80;7.75;;;22.30;87.20;;;;;;5014423;28;20080;-80
2023/09/12 01:07:11;;;;;;;8.75;7.95;;;22.30;87.50;;;;;;5015409;28;20033;-81
2023/09/12 01:09:37;;;;;;;8.93;7.65;;;22.30;87.40;;;;;;5015606;28;20026;-81
2023/09/12 01:12:03;;;;;;;12.75;7.70;;;22.20;87.20;;;;;;5015270;28;20049;-81
2023/09/12 01:14:30;;;;;;;8.15;7.35;;;22.20;87.20;;;;;;5015470;28;20386;-79
2023/09/12 01:16:57;;;;;;;10.13;7.93;;;22.20;87.30;;;;;;5015774;28;20037;-80
2023/09/12 01:19:23;;;;;;;9.75;8.20;;;22.20;87.20;;;;;;5015776;28;20022;-80
2023/09/12 01:22:11;;;;;;;9.23;7.90;;;22.10;87.30;;;;;;5015201;28;20478;-81
2023/09/12 01:25:10;;;;;;;10.27;8.05;;;22.10;87.40;;;;;;5015593;28;20084;-80
2023/09/12 01:27:42;;;;;;;8.60;7.80;;;22.10;87.50;;;;;;5015385;28;20489;-80
2023/09/12 01:30:09;;;;;;;20.05;9.32;;;22.10;87.40;;;;;;5015588;28;20022;-81
2023/09/12 01:32:37;;;;;;;11.02;8.27;;;22.10;87.50;;;;;;5014970;28;20045;-80
2023/09/12 01:35:03;;;;;;;9.98;8.73;;;22.00;87.30;;;;;;5014838;28;20109;-80
2023/09/12 01:37:32;;;;;;;13.07;8.18;;;22.10;87.50;;;;;;5030531;28;20474;-80
2023/09/12 01:39:58;;;;;;;8.82;7.93;;;22.00;87.40;;;;;;5015298;28;20084;-81
2023/09/12 01:42:27;;;;;;;10.07;8.02;;;22.00;87.30;;;;;;5014861;28;20025;-81
2023/09/12 01:44:57;;;;;;;10.27;7.97;;;22.00;87.20;;;;;;5015025;28;20022;-81
2023/09/12 01:47:25;;;;;;;13.38;9.10;;;21.90;87.10;;;;;;5015219;28;20025;-81
2023/09/12 01:49:54;;;;;;;9.50;8.57;;;21.90;87.40;;;;;;5014070;28;20030;-81
2023/09/12 01:52:21;;;;;;;11.70;8.98;;;21.90;87.50;;;;;;5014899;28;20497;-81
2023/09/12 01:54:49;;;;;;;12.93;8.82;;;21.80;87.60;;;;;;5014918;28;20033;-80
2023/09/12 01:57:15;;;;;;;11.18;8.88;;;21.80;87.60;;;;;;5014949;28;20100;-80
2023/09/12 01:59:42;;;;;;;12.10;8.85;;;21.80;87.70;;;;;;5014798;28;20028;-81
2023/09/12 02:02:07;;;;;;;9.25;8.35;;;21.80;87.90;;;;;;5013649;28;20386;-81
2023/09/12 02:04:33;;;;;;;9.10;8.25;;;21.70;88.10;;;;;;5014515;28;20029;-81
2023/09/12 02:06:59;;;;;;;10.57;8.43;;;21.70;88.10;;;;;;5014607;28;20103;-79
2023/09/12 02:09:25;;;;;;;14.20;8.65;;;21.70;88.30;;;;;;5014481;28;20080;-81
2023/09/12 02:11:51;;;;;;;10.98;8.32;;;21.70;88.40;;;;;;5014390;28;20116;-80
2023/09/12 02:14:20;;;;;;;12.32;8.45;;;21.70;88.10;;;;;;5014690;28;20435;-81
2023/09/12 02:16:45;;;;;;;12.30;9.02;;;21.70;88.20;;;;;;5013351;28;20038;-81
2023/09/12 02:19:11;;;;;;;11.65;8.77;;;21.70;88.20;;;;;;5014477;28;20018;-80
2023/09/12 02:21:37;;;;;;;11.10;9.10;;;21.70;88.40;;;;;;5014696;28;20030;-79
2023/09/12 02:24:03;;;;;;;9.70;8.63;;;21.70;88.40;;;;;;5014553;28;20034;-81
2023/09/12 02:26:28;;;;;;;16.15;8.85;;;21.70;88.50;;;;;;5014382;28;20026;-81
2023/09/12 02:28:54;;;;;;;10.85;8.82;;;21.70;88.60;;;;;;5014253;28;20148;-81
2023/09/12 02:31:20;;;;;;;11.30;8.30;;;21.70;88.40;;;;;;5014311;28;20049;-80
2023/09/12 02:33:46;;;;;;;10.45;9.00;;;21.70;88.50;;;;;;5014375;28;20034;-79
2023/09/12 02:36:11;;;;;;;15.50;8.77;;;21.70;88.60;;;;;;5022643;28;20022;-79
2023/09/12 02:38:37;;;;;;;10.88;8.90;;;21.60;88.50;;;;;;5020565;28;20021;-80
2023/09/12 02:41:03;;;;;;;9.88;8.27;;;21.60;88.50;;;;;;5029883;28;20026;-78
2023/09/12 02:43:29;;;;;;;9.20;7.40;;;21.60;88.30;;;;;;5038661;28;20018;-75
2023/09/12 02:45:55;;;;;;;10.52;8.32;;;21.60;88.00;;;;;;5024086;28;20022;-81
2023/09/12 02:48:21;;;;;;;11.40;8.57;;;21.50;87.50;;;;;;5013536;28;20474;-80
2023/09/12 02:50:46;;;;;;;11.27;7.72;;;21.50;87.80;;;;;;5013725;28;20026;-80
2023/09/12 02:53:12;;;;;;;8.95;7.70;;;21.50;87.90;;;;;;5012552;28;20076;-81
2023/09/12 02:55:42;;;;;;;11.88;7.88;;;21.50;88.10;;;;;;5013850;28;20031;-81
2023/09/12 02:58:08;;;;;;;11.35;7.55;;;21.50;88.10;;;;;;5028919;28;20041;-81
2023/09/12 03:00:41;;;;;;;12.55;7.50;;;21.50;87.90;;;;;;5013883;28;20030;-81
2023/09/12 03:03:08;;;;;;;16.50;7.55;;;21.50;87.80;;;;;;5013558;28;20026;-81
2023/09/12 03:05:34;;;;;;;13.65;7.43;;;21.50;87.60;;;;;;5013890;28;20104;-81
2023/09/12 03:08:00;;;;;;;9.98;7.13;;;21.40;87.40;;;;;;5013689;28;20037;-81
2023/09/12 03:10:26;;;;;;;10.35;7.40;;;21.40;87.40;;;;;;5013402;28;20045;-81
2023/09/12 03:12:52;;;;;;;9.43;7.53;;;21.40;87.50;;;;;;5013598;28;20120;-80
2023/09/12 03:15:17;;;;;;;8.20;7.40;;;21.40;87.40;;;;;;5013416;28;20022;-80
2023/09/12 03:17:43;;;;;;;9.50;7.60;;;21.30;87.50;;;;;;5013488;28;20026;-81
2023/09/12 03:20:09;;;;;;;8.30;7.30;;;21.30;87.60;;;;;;5013424;28;20041;-81
2023/09/12 03:22:38;;;;;;;9.70;7.15;;;21.30;87.50;;;;;;5013633;28;20106;-80
2023/09/12 03:25:05;;;;;;;11.00;8.43;;;21.30;87.70;;;;;;5013333;28;20040;-80
2023/09/12 03:27:32;;;;;;;9.07;7.47;;;21.30;87.60;;;;;;5013487;28;20072;-81
2023/09/12 03:29:58;;;;;;;10.63;9.10;;;21.30;87.40;;;;;;5013154;28;20072;-80
2023/09/12 03:32:23;;;;;;;15.27;9.02;;;21.30;87.20;;;;;;5012640;28;20482;-81
2023/09/12 03:34:49;;;;;;;10.48;8.48;;;21.20;87.10;;;;;;5013048;28;20069;-81
2023/09/12 03:37:15;;;;;;;9.85;8.43;;;21.20;87.00;;;;;;5012747;28;20470;-75
2023/09/12 03:39:41;;;;;;;11.52;8.95;;;21.10;87.10;;;;;;5010113;28;20026;-81
2023/09/12 03:42:07;;;;;;;13.85;8.55;;;21.10;87.30;;;;;;5011434;28;20026;-81
2023/09/12 03:44:32;;;;;;;12.20;8.75;;;21.00;87.50;;;;;;5012907;28;20029;-79
2023/09/12 03:46:58;;;;;;;9.98;8.48;;;21.00;87.80;;;;;;5012113;28;20173;-81
2023/09/12 03:49:24;;;;;;;10.05;9.00;;;21.00;87.90;;;;;;5012880;28;20030;-80
2023/09/12 03:51:49;;;;;;;10.10;8.73;;;21.00;88.00;;;;;;5012757;28;20104;-81
2023/09/12 03:54:15;;;;;;;14.50;8.95;;;21.00;88.20;;;;;;5012842;28;20196;-81
2023/09/12 03:56:41;;;;;;;9.57;8.60;;;20.90;88.40;;;;;;5013320;28;20029;-80
2023/09/12 03:59:07;;;;;;;13.10;8.73;;;21.00;88.50;;;;;;5012989;28;20119;-80
2023/09/12 04:01:33;;;;;;;11.20;9.00;;;21.00;88.50;;;;;;5015897;28;20084;-81
2023/09/12 04:03:58;;;;;;;9.00;8.10;;;20.90;88.40;;;;;;5016679;28;20126;-81
2023/09/12 04:06:24;;;;;;;15.35;8.57;;;21.00;88.60;;;;;;5032193;28;20100;-81
2023/09/12 04:08:50;;;;;;;11.32;8.48;;;20.90;88.40;;;;;;5017055;28;20024;-81
2023/09/12 04:11:15;;;;;;;12.50;8.88;;;20.90;88.40;;;;;;5016909;28;20050;-80
2023/09/12 04:13:41;;;;;;;10.77;8.32;;;20.90;88.70;;;;;;5016639;28;20393;-80
2023/09/12 04:16:07;;;;;;;11.90;8.60;;;20.90;88.80;;;;;;5016691;28;20026;-81
2023/09/12 04:18:33;;;;;;;11.73;9.00;;;20.90;89.00;;;;;;5032015;28;20025;-80
2023/09/12 04:20:58;;;;;;;10.30;8.88;;;20.90;89.00;;;;;;5016754;28;20030;-80
2023/09/12 04:23:27;;;;;;;11.25;9.10;;;20.90;89.00;;;;;;5016585;28;20033;-80
2023/09/12 04:25:53;;;;;;;10.00;8.45;;;20.90;89.10;;;;;;5016593;28;20037;-80
2023/09/12 04:28:18;;;;;;;10.32;8.30;;;20.90;89.00;;;;;;5016422;28;20022;-80
2023/09/12 04:30:44;;;;;;;11.75;8.98;;;20.90;89.10;;;;;;5016865;28;20197;-80
2023/09/12 04:33:10;;;;;;;10.10;9.10;;;20.90;89.30;;;;;;5016368;28;20029;-80
2023/09/12 04:35:36;;;;;;;13.48;9.23;;;20.90;89.30;;;;;;5013328;28;20037;-80
2023/09/12 04:38:02;;;;;;;10.95;9.02;;;20.90;89.40;;;;;;5014757;28;20022;-80
2023/09/12 04:40:28;;;;;;;14.18;8.80;;;20.90;89.40;;;;;;5031556;28;20366;-80
2023/09/12 04:42:54;;;;;;;10.20;8.82;;;20.90;89.40;;;;;;5016271;28;20033;-80
2023/09/12 04:45:20;;;;;;;12.48;9.50;;;20.90;89.40;;;;;;5016361;28;20022;-81
2023/09/12 04:47:46;;;;;;;11.52;8.98;;;20.90;89.20;;;;;;5014934;28;20022;-80
2023/09/12 04:50:11;;;;;;;10.90;8.70;;;20.80;89.00;;;;;;5031345;28;20024;-80
2023/09/12 04:52:38;;;;;;;14.05;8.73;;;20.80;89.00;;;;;;5015994;28;20084;-79
2023/09/12 04:55:04;;;;;;;13.23;8.50;;;20.70;89.00;;;;;;5016150;28;20073;-79
2023/09/12 04:57:30;;;;;;;12.23;8.50;;;20.70;89.10;;;;;;5015930;28;20029;-80
2023/09/12 04:59:58;;;;;;;16.17;9.23;;;20.70;89.30;;;;;;5031256;28;20018;-80
2023/09/12 05:02:25;;;;;;;14.95;8.82;;;20.70;89.40;;;;;;5001864;28;20034;-81
2023/09/12 05:04:51;;;;;;;16.75;9.00;;;20.70;89.30;;;;;;4996043;28;20018;-80
2023/09/12 05:07:16;;;;;;;16.13;8.90;;;20.80;89.30;;;;;;4997784;28;20026;-80
2023/09/12 05:09:42;;;;;;;14.52;9.30;;;20.80;89.40;;;;;;4996350;28;20045;-80
2023/09/12 05:12:08;;;;;;;14.65;10.00;;;20.80;89.60;;;;;;4995386;28;20050;-78
2023/09/12 05:14:34;;;;;;;11.32;9.32;;;20.80;89.70;;;;;;4996155;28;20030;-80
2023/09/12 05:17:01;;;;;;;14.57;9.52;;;20.80;89.90;;;;;;4996263;28;20030;-80
2023/09/12 05:19:27;;;;;;;17.05;9.82;;;20.70;90.00;;;;;;4995981;28;20046;-78
2023/09/12 05:21:53;;;;;;;23.88;9.48;;;20.70;90.00;;;;;;4996031;28;20054;-80
2023/09/12 05:24:19;;;;;;;22.75;9.57;;;20.80;90.10;;;;;;4995775;28;20022;-78
2023/09/12 05:26:44;;;;;;;20.90;9.88;;;20.80;90.10;;;;;;4993936;28;20105;-79
2023/09/12 05:29:10;;;;;;;14.48;9.90;;;20.80;90.20;;;;;;5007821;28;20038;-78
2023/09/12 05:31:36;;;;;;;17.85;9.77;;;20.80;90.30;;;;;;4991584;28;20485;-79
2023/09/12 05:34:02;;;;;;;17.35;9.95;;;20.80;90.30;;;;;;4992473;28;20030;-76
2023/09/12 05:36:28;;;;;;;16.70;9.68;;;20.80;90.30;;;;;;4993191;28;20026;-77
2023/09/12 05:38:53;;;;;;;15.30;9.35;;;20.90;90.20;;;;;;5001310;28;20022;-75
2023/09/12 05:41:19;;;;;;;13.13;9.82;;;20.90;90.20;;;;;;4995536;28;20530;-75
2023/09/12 05:43:45;;;;;;;13.80;9.48;;;20.90;90.30;;;;;;5010246;28;20031;-75
2023/09/12 05:46:11;;;;;;;13.93;9.68;;;20.90;90.30;;;;;;4994538;28;20026;-77
2023/09/12 05:48:37;;;;;;;13.68;9.38;;;21.00;90.60;;;;;;4994932;28;20030;-74
2023/09/12 05:51:02;;;;;;;11.30;9.38;;;21.00;90.30;;;;;;4995444;28;20030;-75
2023/09/12 05:53:28;;;;;;;11.05;8.85;;;21.00;90.40;;;;;;4995154;28;20069;-76
2023/09/12 05:55:54;;;;;;;14.02;9.02;;;21.00;90.50;;;;;;4995236;28;20117;-75
2023/09/12 05:58:20;;;;;;;11.50;9.18;;;21.00;90.40;;;;;;4994095;28;20018;-75
2023/09/12 06:00:47;;;;;;;11.98;8.52;;;21.00;90.40;;;;;;4993653;28;20069;-75
2023/09/12 06:03:15;;;;;;;9.07;7.75;;;21.00;90.40;;;;;;4993497;28;20421;-75
2023/09/12 06:05:40;;;;;;;14.25;8.70;;;21.00;90.40;;;;;;4993375;28;20018;-75
2023/09/12 06:08:06;;;;;;;12.52;8.50;;;21.10;90.30;;;;;;4993316;28;20117;-76
2023/09/12 06:10:33;;;;;;;10.75;8.25;;;21.20;90.30;;;;;;4993197;28;20104;-75
2023/09/12 06:12:59;;;;;;;10.18;7.85;;;21.20;90.30;;;;;;4994112;28;20034;-75
2023/09/12 06:15:25;;;;;;;9.27;8.32;;;21.20;90.20;;;;;;4994182;28;20114;-75
2023/09/12 06:17:50;;;;;;;9.63;8.35;;;21.20;90.20;;;;;;4994730;28;20386;-75
2023/09/12 06:20:16;;;;;;;14.88;7.32;;;21.20;90.20;;;;;;4994873;28;20099;-78
2023/09/12 06:22:43;;;;;;;9.32;7.85;;;21.30;90.20;;;;;;4994198;28;20023;-76
2023/09/12 06:25:09;;;;;;;12.65;7.95;;;21.30;90.10;;;;;;4994543;28;20030;-75
2023/09/12 06:27:34;;;;;;;11.18;7.80;;;21.40;90.10;;;;;;4994866;28;20029;-75
2023/09/12 06:30:00;;;;;;;11.63;8.18;;;21.40;90.00;;;;;;4994791;28;20375;-75
2023/09/12 06:32:26;;;;;;;9.88;8.07;;;21.40;89.60;;;;;;4994516;28;20109;-75
2023/09/12 06:34:52;;;;;;;12.88;7.63;;;21.40;89.40;;;;;;4994582;28;20026;-76
2023/09/12 06:37:18;;;;;;;12.95;7.57;;;21.40;89.30;;;;;;4994533;28;20030;-75
2023/09/12 06:39:44;;;;;;;8.75;7.50;;;21.40;89.60;;;;;;4994287;28;20064;-76
2023/09/12 06:42:10;;;;;;;13.55;7.63;;;21.50;89.80;;;;;;4994478;28;20050;-78
2023/09/12 06:44:36;;;;;;;12.57;7.45;;;21.50;89.90;;;;;;4994422;28;20085;-75
2023/09/12 06:47:06;;;;;;;13.63;7.40;;;21.50;89.80;;;;;;4994073;28;20038;-78
2023/09/12 06:49:36;;;;;;;12.55;8.15;;;21.60;89.80;;;;;;4994294;28;20104;-77
2023/09/12 06:52:02;;;;;;;10.32;8.25;;;21.60;89.90;;;;;;4994296;28;20493;-76
2023/09/12 06:54:28;;;;;;;15.30;7.65;;;21.70;89.80;;;;;;4992851;28;20434;-76
2023/09/12 06:56:53;;;;;;;17.55;8.05;;;21.80;89.70;;;;;;4994374;28;20030;-76
2023/09/12 06:59:19;;;;;;;11.13;8.13;;;21.80;89.60;;;;;;4994212;28;20077;-76
2023/09/12 07:01:45;;;;;;;11.32;8.23;;;21.80;89.80;;;;;;4994257;28;20046;-77
2023/09/12 07:04:10;;;;;;;12.35;8.52;;;21.80;89.70;;;;;;4994018;28;20022;-77
2023/09/12 07:06:36;;;;;;;15.82;8.25;;;21.90;89.50;;;;;;4994018;28;20057;-77
2023/09/12 07:09:03;;;;;;;14.60;8.27;;;21.90;89.70;;;;;;4992565;28;20056;-76
2023/09/12 07:11:29;;;;;;;16.90;7.95;;;22.00;90.00;;;;;;4993842;28;20050;-76
2023/09/12 07:13:55;;;;;;;9.52;7.25;;;22.00;90.00;;;;;;4993906;28;20027;-76
2023/09/12 07:16:20;;;;;;;13.77;8.15;;;22.10;90.00;;;;;;4994040;28;20019;-75
2023/09/12 07:18:48;;;;;;;14.13;7.97;;;22.10;89.80;;;;;;4993960;28;20142;-76
2023/09/12 07:21:14;;;;;;;11.25;8.30;;;22.20;89.80;;;;;;4994013;28;20023;-75
2023/09/12 07:23:39;;;;;;;11.10;7.65;;;22.20;89.60;;;;;;4992673;28;20033;-76
2023/09/12 07:26:05;;;;;;;13.73;8.15;;;22.20;89.40;;;;;;4993965;28;20033;-76
2023/09/12 07:28:31;;;;;;;12.75;8.13;;;22.30;89.50;;;;;;4993692;28;20027;-75
2023/09/12 07:30:58;;;;;;;12.98;8.90;;;22.30;89.70;;;;;;4993899;28;20386;-76
2023/09/12 07:33:23;;;;;;;9.02;7.93;;;22.40;89.60;;;;;;4993714;28;20034;-75
2023/09/12 07:35:52;;;;;;;10.82;7.63;;;22.40;89.50;;;;;;4992309;28;20513;-76
2023/09/12 07:38:19;;;;;;;14.35;7.78;;;22.50;89.50;;;;;;4993615;28;20034;-76
2023/09/12 07:40:45;;;;;;;11.43;7.82;;;22.50;89.10;;;;;;4993653;28;20046;-76
2023/09/12 07:43:11;;;;;;;8.63;7.72;;;22.60;88.60;;;;;;4993779;28;20061;-75
2023/09/12 07:45:37;;;;;;;15.75;8.73;;;22.60;88.60;;;;;;4993780;28;20026;-76
2023/09/12 07:48:08;;;;;;;14.15;8.38;;;22.60;88.50;;;;;;4993619;28;20059;-77
2023/09/12 07:50:34;;;;;;;117.45;11.98;;;22.70;88.70;;;;;;4993452;28;20029;-75
2023/09/12 07:52:59;;;;;;;49.78;9.68;;;22.70;88.60;;;;;;4993337;28;20045;-77
2023/09/12 07:55:25;;;;;;;12.18;8.02;;;22.70;88.60;;;;;;4993549;28;20031;-78
2023/09/12 07:57:51;;;;;;;10.45;8.25;;;22.80;88.60;;;;;;4993512;28;20054;-78
2023/09/12 08:00:17;;;;;;;11.25;7.28;;;22.80;88.30;;;;;;4993627;28;20026;-78
2023/09/12 08:02:43;;;;;;;9.65;7.95;;;22.90;88.20;;;;;;4993424;28;20026;-77
2023/09/12 08:05:09;;;;;;;12.82;8.05;;;23.00;87.90;;;;;;4993451;28;20071;-77
2023/09/12 08:07:36;;;;;;;9.95;7.57;;;23.10;88.10;;;;;;4992404;28;20153;-77
2023/09/12 08:10:02;;;;;;;9.88;7.97;;;23.10;87.50;;;;;;4993504;28;20031;-77
2023/09/12 08:12:28;;;;;;;10.43;7.18;;;23.10;87.50;;;;;;4993296;28;20117;-78
2023/09/12 08:14:55;;;;;;;7.72;6.93;;;23.20;87.90;;;;;;5008554;28;20161;-77
2023/09/12 08:17:23;;;;;;;15.18;7.10;;;23.20;87.30;;;;;;4993137;28;20041;-78
2023/09/12 08:19:48;;;;;;;9.75;7.07;;;23.30;87.50;;;;;;4993245;28;20030;-78
2023/09/12 08:22:15;;;;;;;15.23;6.78;;;23.30;87.10;;;;;;4993334;28;20030;-78
2023/09/12 08:24:40;;;;;;;10.85;6.80;;;23.40;86.90;;;;;;4993423;28;20049;-78
2023/09/12 08:27:07;;;;;;;8.00;7.18;;;23.40;86.80;;;;;;4993181;28;20054;-77
2023/09/12 08:29:34;;;;;;;11.23;7.47;;;23.50;87.10;;;;;;4993337;28;20027;-78
2023/09/12 08:32:00;;;;;;;10.57;6.88;;;23.50;87.00;;;;;;4993297;28;20038;-77
2023/09/12 08:34:26;;;;;;;8.60;6.90;;;23.60;86.40;;;;;;5008030;28;20482;-78
2023/09/12 08:36:52;;;;;;;9.50;6.70;;;23.60;86.10;;;;;;4993385;28;20026;-78
2023/09/12 08:39:39;;;;;;;11.35;7.20;;;23.60;85.70;;;;;;4993122;28;20114;-78
2023/09/12 08:42:06;;;;;;;10.55;7.00;;;23.70;85.50;;;;;;4993165;28;20034;-77
2023/09/12 08:44:32;;;;;;;11.02;7.18;;;23.70;85.30;;;;;;5008066;28;20030;-78
2023/09/12 08:46:59;;;;;;;14.43;7.70;;;23.80;84.80;;;;;;4995106;28;20080;-77
2023/09/12 08:49:26;;;;;;;11.65;6.70;;;23.80;85.30;;;;;;4996639;28;20034;-78
2023/09/12 08:51:51;;;;;;;12.20;6.75;;;23.80;85.30;;;;;;4996960;28;20486;-78
2023/09/12 08:54:17;;;;;;;12.05;7.15;;;23.90;85.10;;;;;;4996527;28;20046;-78
2023/09/12 08:56:44;;;;;;;8.45;6.70;;;23.90;84.10;;;;;;5011636;28;20104;-77
2023/09/12 08:59:11;;;;;;;11.20;7.25;;;23.90;84.20;;;;;;4996385;28;20031;-77
2023/09/12 09:01:38;;;;;;;17.08;6.68;;;24.00;84.70;;;;;;4996252;28;20026;-78
2023/09/12 09:04:05;;;;;;;15.55;6.97;;;24.00;85.20;;;;;;4996133;28;20049;-78
2023/09/12 09:06:40;;;;;;;15.88;6.45;;;24.10;85.00;;;;;;4996292;28;20041;-78
2023/09/12 09:09:07;;;;;;;19.70;6.97;;;24.20;84.80;;;;;;4996427;28;20026;-78
2023/09/12 09:11:34;;;;;;;15.85;7.03;;;24.20;84.80;;;;;;4995966;28;20046;-78
2023/09/12 09:14:02;;;;;;;14.25;6.53;;;24.20;84.00;;;;;;4996001;28;20038;-78
2023/09/12 09:16:29;;;;;;;12.38;6.47;;;24.30;84.00;;;;;;4996159;28;20019;-78
2023/09/12 09:18:57;;;;;;;8.60;6.25;;;24.30;83.90;;;;;;4996227;28;20034;-78
2023/09/12 09:21:30;;;;;;;9.93;6.28;;;24.40;83.80;;;;;;5011189;28;20368;-78
2023/09/12 09:24:00;;;;;;;9.65;6.35;;;24.40;82.00;;;;;;4996096;28;20030;-78
2023/09/12 09:27:00;;;;;;;9.75;5.95;;;24.50;82.50;;;;;;5011209;28;20430;-78
2023/09/12 09:29:28;;;;;;;14.80;6.30;;;24.50;81.60;;;;;;4995722;28;20097;-78
2023/09/12 09:31:54;;;;;;;7.05;6.15;;;24.60;81.10;;;;;;4995880;28;20033;-78
2023/09/12 09:34:21;;;;;;;10.02;6.38;;;24.60;81.40;;;;;;4995876;28;20481;-78
2023/09/12 09:36:49;;;;;;;10.50;5.95;;;24.60;81.00;;;;;;4995782;28;20019;-78
2023/09/12 09:39:17;;;;;;;9.48;6.60;;;24.70;80.90;;;;;;4995848;28;20030;-77
2023/09/12 09:41:46;;;;;;;7.47;5.80;;;24.70;80.20;;;;;;4995655;28;20027;-78
2023/09/12 09:44:13;;;;;;;7.88;5.57;;;24.70;79.50;;;;;;4995668;28;20037;-78
2023/09/12 09:46:43;;;;;;;11.40;5.85;;;24.80;78.40;;;;;;4995516;28;20102;-77
2023/09/12 09:49:15;;;;;;;13.43;6.00;;;24.80;78.70;;;;;;4995724;28;20467;-78
2023/09/12 09:51:42;;;;;;;;;;;24.90;78.70;;;;;;4996007;28;20036;-78
2023/09/12 09:54:08;;;;;;;9.98;6.30;;;24.90;78.40;;;;;;4995214;28;20428;-78
2023/09/12 09:56:49;;;;;;;8.80;6.10;;;24.90;79.00;;;;;;4995428;28;20096;-78
2023/09/12 09:59:26;;;;;;;14.38;5.60;;;25.00;78.70;;;;;;4994034;28;20050;-78
2023/09/12 10:02:03;;;;;;;10.00;5.82;;;25.00;78.10;;;;;;4995450;28;20105;-78
2023/09/12 10:04:29;;;;;;;11.20;5.85;;;25.10;78.70;;;;;;4995177;28;20026;-77
2023/09/12 10:06:58;;;;;;;12.27;5.63;;;25.10;78.90;;;;;;4995299;28;20022;-78
2023/09/12 10:09:27;;;;;;;7.63;5.78;;;25.10;76.80;;;;;;4995239;28;20382;-78
2023/09/12 10:11:55;;;;;;;18.33;5.78;;;25.20;78.40;;;;;;4994947;28;20043;-78
2023/09/12 10:14:23;;;;;;;11.90;5.63;;;25.30;77.90;;;;;;4995093;28;20382;-78
2023/09/12 10:16:51;;;;;;;9.27;5.03;;;25.40;78.50;;;;;;4995071;28;20018;-78
2023/09/12 10:19:22;;;;;;;6.10;5.13;;;25.40;75.30;;;;;;4995326;28;20030;-78
2023/09/12 10:21:57;;;;;;;7.85;5.25;;;25.40;75.50;;;;;;4994923;28;20213;-78
2023/09/12 10:24:24;;;;;;;12.20;6.05;;;25.50;76.30;;;;;;4995005;28;20479;-77
2023/09/12 10:26:51;;;;;;;9.10;5.28;;;25.50;75.60;;;;;;4994960;28;20065;-78
2023/09/12 10:29:17;;;;;;;15.45;5.47;;;25.60;75.80;;;;;;4994620;28;20026;-77
2023/09/12 10:31:43;;;;;;;12.50;5.70;;;25.70;74.90;;;;;;4994920;28;20037;-78
2023/09/12 10:34:13;;;;;;;8.98;5.18;;;25.70;74.80;;;;;;4994780;28;20042;-77
2023/09/12 10:36:40;;;;;;;8.98;4.80;;;25.70;74.20;;;;;;4994768;28;20530;-78
2023/09/12 10:39:08;;;;;;;8.95;5.35;;;25.70;74.60;;;;;;4994999;28;20122;-78
2023/09/12 10:41:37;;;;;;;11.63;5.35;;;25.70;74.60;;;;;;4994479;28;20487;-78
2023/09/12 10:44:14;;;;;;;8.73;4.90;;;25.70;73.90;;;;;;4994327;28;20034;-77
2023/09/12 10:46:41;;;;;;;8.15;4.65;;;25.70;73.90;;;;;;4993995;28;20029;-78
2023/09/12 10:49:11;;;;;;;7.95;4.90;;;25.80;73.90;;;;;;4993922;28;20018;-78
2023/09/12 10:51:55;;;;;;;7.88;5.47;;;25.90;74.30;;;;;;4993738;28;20030;-77
2023/09/12 10:54:35;;;;;;;15.00;6.03;;;25.90;74.40;;;;;;4994035;28;20030;-77
2023/09/12 10:57:08;;;;;;;10.25;5.18;;;26.00;74.70;;;;;;4993625;28;20084;-78
2023/09/12 10:59:37;;;;;;;9.07;5.03;;;26.00;72.70;;;;;;4993833;28;20034;-77
2023/09/12 11:02:29;;;;;;;8.50;4.95;;;26.00;72.70;;;;;;4993440;28;20093;-77
2023/09/12 11:04:56;;;;;;;6.60;5.50;;;26.10;72.70;;;;;;4989188;28;20149;-78
2023/09/12 11:07:40;;;;;;;8.40;5.03;;;26.10;73.70;;;;;;4993677;28;20030;-78
2023/09/12 11:10:27;;;;;;;6.88;4.90;;;26.20;71.40;;;;;;4993228;28;20467;-77
2023/09/12 11:12:56;;;;;;;11.57;5.18;;;26.30;70.60;;;;;;4994014;28;20038;-77
2023/09/12 11:15:25;;;;;;;11.52;5.00;;;26.30;70.70;;;;;;4993834;28;20026;-77
2023/09/12 11:18:03;;;;;;;10.25;5.78;;;26.30;71.70;;;;;;4993839;28;20038;-77
2023/09/12 11:20:58;;;;;;;6.35;5.00;;;26.40;72.20;;;;;;4993353;28;20045;-77
2023/09/12 11:23:25;;;;;;;7.43;5.00;;;26.40;70.90;;;;;;4993591;28;20542;-78
2023/09/12 11:26:13;;;;;;;8.57;5.50;;;26.40;68.90;;;;;;4993911;28;20434;-79
2023/09/12 11:28:39;;;;;;;8.85;5.30;;;26.40;70.90;;;;;;4993445;28;20026;-78
2023/09/12 11:31:06;;;;;;;13.77;5.57;;;26.40;71.60;;;;;;4993654;28;20050;-78
2023/09/12 11:33:37;;;;;;;10.07;5.85;;;26.40;73.30;;;;;;4993132;28;20042;-76
2023/09/12 11:36:08;;;;;;;9.52;5.80;;;26.50;71.70;;;;;;4993404;28;20018;-78
2023/09/12 11:38:34;;;;;;;11.23;5.40;;;26.50;72.10;;;;;;4993153;28;20101;-77
2023/09/12 11:41:00;;;;;;;8.77;5.68;;;26.50;73.10;;;;;;4993646;28;20714;-76
2023/09/12 11:43:29;;;;;;;19.23;5.53;;;26.50;73.60;;;;;;4993549;28;20030;-77
2023/09/12 11:45:58;;;;;;;12.48;5.93;;;26.50;73.70;;;;;;4993370;28;20495;-79
2023/09/12 11:48:24;;;;;;;8.20;5.95;;;26.50;73.50;;;;;;4993468;28;20471;-77
2023/09/12 11:50:54;;;;;;;10.48;5.63;;;26.50;74.10;;;;;;4993261;28;20030;-78
2023/09/12 11:53:25;;;;;;;9.10;5.65;;;26.50;74.10;;;;;;4993574;28;20030;-78
2023/09/12 11:55:57;;;;;;;10.95;6.07;;;26.50;73.70;;;;;;4993358;28;20054;-79
2023/09/12 11:58:25;;;;;;;12.23;5.28;;;26.60;72.90;;;;;;4993550;28;20499;-78
2023/09/12 12:00:53;;;;;;;15.43;6.35;;;26.60;72.50;;;;;;4993509;28;20486;-78
2023/09/12 12:03:23;;;;;;;16.25;5.78;;;26.70;73.60;;;;;;4993771;28;20101;-79
2023/09/12 12:05:54;;;;;;;12.13;5.95;;;26.80;74.00;;;;;;4992985;28;20489;-79
2023/09/12 12:08:21;;;;;;;11.18;6.05;;;26.80;73.80;;;;;;4993366;28;20149;-78
2023/09/12 12:10:54;;;;;;;12.48;6.10;;;26.90;72.40;;;;;;5008160;28;20057;-79
2023/09/12 12:13:21;;;;;;;10.23;6.20;;;26.90;71.50;;;;;;4993220;28;20048;-77
2023/09/12 12:15:47;;;;;;;10.88;5.63;;;27.00;72.20;;;;;;4992332;28;20117;-79
2023/09/12 12:18:13;;;;;;;10.05;6.22;;;27.00;72.60;;;;;;4992309;28;20118;-75
2023/09/12 12:20:39;;;;;;;9.38;6.47;;;27.00;72.20;;;;;;4992355;28;20072;-75
2023/09/12 12:23:05;;;;;;;12.20;5.95;;;27.00;72.60;;;;;;4996084;28;20026;-75
2023/09/12 12:25:35;;;;;;;9.18;6.68;;;27.00;72.70;;;;;;4995662;28;20110;-75
2023/09/12 12:28:02;;;;;;;11.98;6.43;;;27.10;72.60;;;;;;4997389;28;20026;-75
2023/09/12 12:30:32;;;;;;;10.90;6.07;;;27.10;73.10;;;;;;4996162;28;20014;-75
2023/09/12 12:33:00;;;;;;;7.47;6.45;;;27.20;73.80;;;;;;4996006;28;20077;-76
2023/09/12 12:35:26;;;;;;;9.30;6.68;;;27.20;74.20;;;;;;4996313;28;20443;-76
2023/09/12 12:37:56;;;;;;;12.82;7.38;;;27.30;75.20;;;;;;4996307;28;20061;-75
2023/09/12 12:40:22;;;;;;;15.15;6.97;;;27.30;75.40;;;;;;4996425;28;20489;-76
2023/09/12 12:42:48;;;;;;;11.23;7.03;;;27.30;76.30;;;;;;4995387;28;20030;-76